createdAt,value
2022-10-31T00:01:18.114Z,100.00
2022-10-31T00:03:46.036Z,100.00
2022-10-31T00:06:23.521Z,100.00
2022-10-31T00:08:57.430Z,100.00
2022-10-31T00:11:28.719Z,100.00
2022-10-31T00:14:36.105Z,100.00
2022-10-31T00:17:39.283Z,100.00
2022-10-31T00:20:11.708Z,100.00
2022-10-31T00:22:47.761Z,100.00
2022-10-31T00:25:14.783Z,100.00
2022-10-31T00:27:43.978Z,100.00
2022-10-31T00:30:13.500Z,100.00
2022-10-31T00:32:54.697Z,100.00
2022-10-31T00:35:47.358Z,100.00
2022-10-31T00:38:17.713Z,100.00
2022-10-31T00:40:44.808Z,100.00
2022-10-31T00:43:23.294Z,100.00
2022-10-31T00:45:58.510Z,100.00
2022-10-31T00:48:27.641Z,100.00
2022-10-31T00:50:54.803Z,100.00
2022-10-31T00:53:44.645Z,100.00
2022-10-31T00:56:12.585Z,100.00
2022-10-31T00:58:49.686Z,100.00
2022-10-31T01:01:24.669Z,100.00
2022-10-31T01:04:00.877Z,100.00
2022-10-31T01:06:28.988Z,100.00
2022-10-31T01:08:56.158Z,100.00
2022-10-31T01:11:24.659Z,100.00
2022-10-31T01:13:54.078Z,100.00
2022-10-31T01:16:24.035Z,100.00
2022-10-31T01:18:52.413Z,100.00
2022-10-31T01:21:29.385Z,100.00
2022-10-31T01:23:57.928Z,100.00
2022-10-31T01:26:27.649Z,100.00
2022-10-31T01:29:00.399Z,100.00
2022-10-31T01:31:29.928Z,100.00
2022-10-31T01:33:59.524Z,100.00
2022-10-31T01:36:36.418Z,100.00
2022-10-31T01:39:13.561Z,100.00
2022-10-31T01:41:45.238Z,100.00
2022-10-31T01:44:17.170Z,100.00
2022-10-31T01:46:56.518Z,100.00
2022-10-31T01:49:45.015Z,100.00
2022-10-31T01:52:24.377Z,100.00
2022-10-31T01:55:04.329Z,100.00
2022-10-31T01:58:10.131Z,100.00
2022-10-31T02:00:37.739Z,100.00
2022-10-31T02:03:05.829Z,100.00
2022-10-31T02:05:44.344Z,100.00
2022-10-31T02:08:31.541Z,100.00
2022-10-31T02:11:01.295Z,100.00
2022-10-31T02:13:42.993Z,100.00
2022-10-31T02:16:10.971Z,100.00
2022-10-31T02:18:39.182Z,100.00
2022-10-31T02:21:32.688Z,100.00
2022-10-31T02:24:40.029Z,100.00
2022-10-31T02:27:31.470Z,100.00
2022-10-31T02:30:08.610Z,100.00
2022-10-31T02:32:44.706Z,100.00
2022-10-31T02:35:36.465Z,100.00
2022-10-31T02:38:27.179Z,100.00
2022-10-31T02:41:25.519Z,100.00
2022-10-31T02:44:05.558Z,100.00
2022-10-31T02:46:35.659Z,100.00
2022-10-31T02:49:28.227Z,100.00
2022-10-31T02:51:55.383Z,100.00
2022-10-31T02:54:32.353Z,100.00
2022-10-31T02:57:05.537Z,100.00
2022-10-31T02:59:37.446Z,100.00
2022-10-31T03:03:00.825Z,100.00
2022-10-31T03:05:36.054Z,100.00
2022-10-31T03:08:30.698Z,100.00
2022-10-31T03:11:19.439Z,100.00
2022-10-31T03:14:37.065Z,100.00
2022-10-31T03:17:17.714Z,100.00
2022-10-31T03:19:55.354Z,100.00
2022-10-31T03:22:30.833Z,100.00
2022-10-31T03:25:03.966Z,100.00
2022-10-31T03:27:36.214Z,100.00
2022-10-31T03:30:11.206Z,100.00
2022-10-31T03:33:03.038Z,100.00
2022-10-31T03:35:37.819Z,100.00
2022-10-31T03:38:34.785Z,100.00
2022-10-31T03:41:07.150Z,100.00
2022-10-31T03:43:41.891Z,100.00
2022-10-31T03:46:10.368Z,100.00
2022-10-31T03:48:37.387Z,100.00
2022-10-31T03:51:37.128Z,100.00
2022-10-31T03:54:10.420Z,100.00
2022-10-31T03:56:51.945Z,100.00
2022-10-31T03:59:26.383Z,100.00
2022-10-31T04:02:03.655Z,100.00
2022-10-31T04:04:34.598Z,100.00
2022-10-31T04:07:03.014Z,100.00
2022-10-31T04:09:36.598Z,100.00
2022-10-31T04:12:12.985Z,100.00
2022-10-31T04:14:54.940Z,100.00
2022-10-31T04:17:25.257Z,100.00
2022-10-31T04:19:52.504Z,100.00
2022-10-31T04:22:21.645Z,100.00
2022-10-31T04:24:48.621Z,100.00
2022-10-31T04:27:16.638Z,100.00
2022-10-31T04:29:46.946Z,100.00
2022-10-31T04:32:20.137Z,100.00
2022-10-31T04:34:47.275Z,100.00
2022-10-31T04:37:16.141Z,100.00
2022-10-31T04:40:02.785Z,100.00
2022-10-31T04:42:33.363Z,100.00
2022-10-31T04:45:02.416Z,100.00
2022-10-31T04:47:33.578Z,100.00
2022-10-31T04:50:01.099Z,100.00
2022-10-31T04:52:29.695Z,100.00
2022-10-31T04:54:56.645Z,100.00
2022-10-31T04:57:23.790Z,100.00
2022-10-31T04:59:51.727Z,100.00
2022-10-31T05:02:18.761Z,100.00
2022-10-31T05:04:45.816Z,100.00
2022-10-31T05:07:12.752Z,100.00
2022-10-31T05:09:42.667Z,100.00
2022-10-31T05:12:09.664Z,100.00
2022-10-31T05:14:37.798Z,100.00
2022-10-31T05:17:05.888Z,100.00
2022-10-31T05:19:33.020Z,100.00
2022-10-31T05:22:03.950Z,100.00
2022-10-31T05:24:30.963Z,100.00
2022-10-31T05:27:05.879Z,100.00
2022-10-31T05:29:40.011Z,100.00
2022-10-31T05:32:08.177Z,100.00
2022-10-31T05:34:38.296Z,100.00
2022-10-31T05:37:05.225Z,100.00
2022-10-31T05:39:34.318Z,100.00
2022-10-31T05:42:03.768Z,100.00
2022-10-31T05:44:40.114Z,100.00
2022-10-31T05:47:14.651Z,100.00
2022-10-31T05:49:41.626Z,100.00
2022-10-31T05:52:08.620Z,100.00
2022-10-31T05:54:45.387Z,100.00
2022-10-31T05:57:27.094Z,100.00
2022-10-31T06:00:01.618Z,100.00
2022-10-31T06:02:35.718Z,100.00
2022-10-31T06:05:04.263Z,100.00
2022-10-31T06:07:35.618Z,100.00
2022-10-31T06:10:06.507Z,100.00
2022-10-31T06:12:46.414Z,100.00
2022-10-31T06:15:17.704Z,100.00
2022-10-31T06:17:47.944Z,100.00
2022-10-31T06:20:15.879Z,100.00
2022-10-31T06:22:50.077Z,100.00
2022-10-31T06:25:29.717Z,100.00
2022-10-31T06:27:58.786Z,100.00
2022-10-31T06:30:26.112Z,100.00
2022-10-31T06:32:54.283Z,100.00
2022-10-31T06:35:23.256Z,100.00
2022-10-31T06:37:55.132Z,100.00
2022-10-31T06:40:22.597Z,100.00
2022-10-31T06:43:02.867Z,100.00
2022-10-31T06:45:30.298Z,100.00
2022-10-31T06:50:49.800Z,100.00
2022-10-31T06:53:32.843Z,100.00
2022-10-31T06:56:07.446Z,100.00
2022-10-31T06:58:47.918Z,100.00
2022-10-31T07:01:15.188Z,100.00
2022-10-31T07:03:42.234Z,100.00
2022-10-31T07:06:11.208Z,100.00
2022-10-31T07:08:38.238Z,100.00
2022-10-31T07:11:08.337Z,100.00
2022-10-31T07:13:36.318Z,100.00
2022-10-31T07:16:09.102Z,100.00
2022-10-31T07:18:37.397Z,100.00
2022-10-31T07:21:04.868Z,100.00
2022-10-31T07:23:31.905Z,100.00
2022-10-31T07:26:05.969Z,100.00
2022-10-31T07:28:39.058Z,100.00
2022-10-31T07:31:07.003Z,100.00
2022-10-31T07:33:34.996Z,100.00
2022-10-31T07:36:05.360Z,100.00
2022-10-31T07:38:37.371Z,100.00
2022-10-31T07:41:11.499Z,100.00
2022-10-31T07:43:38.702Z,100.00
2022-10-31T07:46:12.704Z,100.00
2022-10-31T07:48:40.687Z,100.00
2022-10-31T07:51:38.313Z,100.00
2022-10-31T07:54:10.779Z,100.00
2022-10-31T07:56:37.717Z,100.00
2022-10-31T07:59:05.782Z,100.00
2022-10-31T08:01:33.830Z,100.00
2022-10-31T08:04:06.970Z,100.00
2022-10-31T08:06:38.139Z,100.00
2022-10-31T08:09:06.310Z,100.00
2022-10-31T08:11:58.454Z,100.00
2022-10-31T08:14:28.966Z,100.00
2022-10-31T08:16:56.220Z,100.00
2022-10-31T08:19:34.973Z,100.00
2022-10-31T08:22:02.161Z,100.00
2022-10-31T08:24:31.351Z,100.00
2022-10-31T08:27:01.699Z,100.00
2022-10-31T08:29:28.643Z,99.23
2022-10-31T08:31:55.637Z,98.73
2022-10-31T08:34:22.599Z,97.50
2022-10-31T08:36:50.648Z,96.14
2022-10-31T08:39:20.619Z,93.76
2022-10-31T08:41:53.598Z,91.96
2022-10-31T08:44:27.600Z,88.80
2022-10-31T08:46:55.638Z,80.23
2022-10-31T08:49:22.649Z,73.41
2022-10-31T08:51:50.783Z,67.85
2022-10-31T08:54:17.830Z,64.98
2022-10-31T08:56:46.997Z,63.36
2022-10-31T08:59:14.044Z,63.31
2022-10-31T09:01:43.186Z,61.47
2022-10-31T09:04:11.422Z,60.70
2022-10-31T09:07:20.172Z,58.38
2022-10-31T09:09:48.033Z,56.57
2022-10-31T09:12:14.995Z,56.15
2022-10-31T09:14:51.078Z,55.48
2022-10-31T09:17:20.148Z,53.67
2022-10-31T09:19:48.157Z,51.84
2022-10-31T09:22:29.304Z,51.91
2022-10-31T09:24:58.384Z,49.16
2022-10-31T09:30:05.614Z,44.81
2022-10-31T09:32:44.773Z,44.35
2022-10-31T09:38:02.373Z,43.63
2022-10-31T09:40:42.000Z,39.48
2022-10-31T09:43:47.444Z,40.57
2022-10-31T09:46:55.519Z,41.12
2022-10-31T09:49:45.312Z,41.58
2022-10-31T09:52:35.519Z,41.65
2022-10-31T09:55:38.515Z,42.83
2022-10-31T09:58:27.177Z,41.56
2022-10-31T10:01:00.636Z,41.97
2022-10-31T10:03:35.908Z,42.06
2022-10-31T10:06:24.751Z,41.53
2022-10-31T10:08:56.562Z,40.94
2022-10-31T10:12:06.052Z,41.42
2022-10-31T10:14:40.877Z,41.12
2022-10-31T10:17:22.941Z,40.45
2022-10-31T10:20:20.814Z,40.29
2022-10-31T10:23:10.297Z,39.37
2022-10-31T10:25:49.498Z,37.62
2022-10-31T10:28:22.505Z,37.20
2022-10-31T10:31:01.238Z,35.60
2022-10-31T10:33:42.305Z,34.92
2022-10-31T10:36:40.129Z,35.49
2022-10-31T10:39:14.282Z,35.40
2022-10-31T10:42:21.289Z,35.22
2022-10-31T10:45:17.573Z,34.85
2022-10-31T10:48:05.317Z,35.61
2022-10-31T10:50:37.416Z,35.57
2022-10-31T10:54:05.217Z,34.33
2022-10-31T10:56:54.301Z,33.49
2022-10-31T10:59:23.668Z,33.30
2022-10-31T11:02:01.726Z,32.52
2022-10-31T11:04:35.536Z,32.89
2022-10-31T11:07:11.387Z,32.53
2022-10-31T11:09:38.879Z,33.55
2022-10-31T11:12:37.688Z,34.15
2022-10-31T11:15:20.828Z,33.98
2022-10-31T11:17:57.476Z,33.29
2022-10-31T11:21:03.933Z,33.36
2022-10-31T11:23:35.125Z,32.88
2022-10-31T11:26:06.316Z,32.31
2022-10-31T11:28:38.401Z,31.06
2022-10-31T11:31:17.207Z,30.72
2022-10-31T11:34:00.390Z,30.52
2022-10-31T11:36:33.663Z,30.50
2022-10-31T11:39:02.825Z,30.96
2022-10-31T11:41:39.827Z,31.09
2022-10-31T11:44:27.889Z,30.26
2022-10-31T11:47:00.121Z,30.46
2022-10-31T11:49:50.915Z,30.00
2022-10-31T11:52:33.373Z,30.41
2022-10-31T11:55:22.316Z,30.83
2022-10-31T11:57:55.531Z,31.38
2022-10-31T12:00:39.606Z,31.93
2022-10-31T12:03:21.849Z,31.27
2022-10-31T12:05:58.383Z,31.14
2022-10-31T12:08:32.574Z,31.56
2022-10-31T12:11:33.222Z,32.78
2022-10-31T12:14:15.444Z,31.06
2022-10-31T12:17:10.638Z,30.43
2022-10-31T12:20:17.609Z,30.55
2022-10-31T12:23:04.352Z,30.07
2022-10-31T12:25:55.246Z,30.80
2022-10-31T12:29:04.040Z,30.66
2022-10-31T12:31:51.860Z,30.65
2022-10-31T12:34:44.799Z,31.21
2022-10-31T12:37:27.107Z,30.41
2022-10-31T12:40:34.741Z,30.00
2022-10-31T12:43:37.685Z,28.96
2022-10-31T12:46:15.389Z,29.29
2022-10-31T12:49:16.846Z,29.12
2022-10-31T12:52:24.054Z,30.06
2022-10-31T12:55:04.645Z,29.76
2022-10-31T12:57:43.934Z,29.99
2022-10-31T13:00:18.018Z,30.36
2022-10-31T13:03:15.897Z,30.45
2022-10-31T13:05:55.825Z,30.55
2022-10-31T13:08:41.892Z,30.48
2022-10-31T13:11:17.023Z,29.73
2022-10-31T13:14:26.935Z,30.14
2022-10-31T13:16:56.538Z,30.57
2022-10-31T13:19:29.071Z,30.24
2022-10-31T13:22:20.128Z,29.98
2022-10-31T13:25:09.514Z,29.79
2022-10-31T13:27:52.267Z,29.58
2022-10-31T13:30:23.735Z,29.40
2022-10-31T13:33:15.019Z,29.01
2022-10-31T13:36:16.270Z,29.49
2022-10-31T13:39:50.954Z,29.15
2022-10-31T13:42:38.979Z,29.77
2022-10-31T13:45:15.526Z,29.96
2022-10-31T13:47:44.231Z,31.25
2022-10-31T13:50:34.403Z,31.51
2022-10-31T13:53:19.379Z,32.16
2022-10-31T13:56:04.349Z,31.73
2022-10-31T13:58:33.309Z,31.14
2022-10-31T14:01:21.557Z,31.16
2022-10-31T14:04:10.964Z,31.03
2022-10-31T14:06:59.564Z,31.14
2022-10-31T14:09:33.456Z,31.06
2022-10-31T14:12:14.125Z,30.78
2022-10-31T14:14:51.435Z,30.49
2022-10-31T14:17:28.149Z,31.09
2022-10-31T14:20:02.171Z,31.62
2022-10-31T14:22:37.313Z,31.74
2022-10-31T14:25:26.791Z,32.09
2022-10-31T14:27:54.021Z,32.04
2022-10-31T14:30:25.598Z,32.74
2022-10-31T14:33:00.143Z,33.11
2022-10-31T14:35:52.774Z,33.16
2022-10-31T14:38:57.154Z,33.77
2022-10-31T14:41:51.335Z,34.44
2022-10-31T14:44:57.587Z,34.93
2022-10-31T14:48:05.291Z,35.88
2022-10-31T14:50:49.814Z,36.72
2022-10-31T14:53:36.098Z,37.49
2022-10-31T14:56:11.492Z,38.54
2022-10-31T14:58:47.290Z,39.20
2022-10-31T15:01:38.325Z,40.22
2022-10-31T15:04:33.715Z,41.11
2022-10-31T15:07:25.117Z,42.74
2022-10-31T15:10:00.854Z,43.61
2022-10-31T15:12:39.990Z,44.93
2022-10-31T15:15:35.384Z,46.77
2022-10-31T15:18:18.560Z,48.28
2022-10-31T15:20:54.901Z,51.64
2022-10-31T15:23:30.188Z,53.83
2022-10-31T15:26:02.720Z,55.85
2022-10-31T15:28:34.999Z,57.71
2022-10-31T15:31:04.348Z,61.74
2022-10-31T15:33:52.548Z,64.27
2022-10-31T15:36:27.752Z,65.27
2022-10-31T15:39:03.934Z,66.29
2022-10-31T15:41:40.161Z,67.15
2022-10-31T15:44:37.468Z,67.28
2022-10-31T15:47:18.540Z,67.95
2022-10-31T15:49:57.118Z,68.82
2022-10-31T15:52:55.260Z,70.41
2022-10-31T15:55:37.216Z,71.95
2022-10-31T15:58:16.122Z,73.22
2022-10-31T16:00:57.861Z,74.77
2022-10-31T16:03:42.229Z,74.34
2022-10-31T16:06:22.532Z,74.86
2022-10-31T16:08:53.497Z,75.77
2022-10-31T16:11:54.346Z,77.60
2022-10-31T16:14:45.594Z,78.01
2022-10-31T16:17:45.417Z,78.79
2022-10-31T16:20:26.566Z,79.29
2022-10-31T16:22:56.872Z,80.32
2022-10-31T16:25:41.148Z,80.93
2022-10-31T16:29:05.587Z,82.41
2022-10-31T16:31:42.149Z,83.33
2022-10-31T16:34:26.557Z,84.12
2022-10-31T16:36:58.056Z,86.58
2022-10-31T16:39:26.015Z,88.88
2022-10-31T16:41:58.247Z,90.97
2022-10-31T16:44:34.768Z,91.79
2022-10-31T16:47:16.162Z,89.85
2022-10-31T16:53:33.890Z,88.31
2022-10-31T16:56:17.758Z,87.78
2022-10-31T16:58:46.457Z,86.38
2022-10-31T17:01:23.361Z,86.25
2022-10-31T17:03:57.554Z,86.25
2022-10-31T17:06:48.544Z,87.93
2022-10-31T17:10:32.626Z,89.02
2022-10-31T17:13:04.297Z,87.67
2022-10-31T17:15:55.962Z,87.84
2022-10-31T17:18:39.456Z,88.32
2022-10-31T17:21:42.759Z,88.04
2022-10-31T17:24:27.163Z,88.61
2022-10-31T17:26:56.852Z,89.18
2022-10-31T17:29:26.920Z,89.08
2022-10-31T17:31:54.240Z,90.11
2022-10-31T17:34:21.299Z,90.68
2022-10-31T17:36:53.622Z,89.38
2022-10-31T17:39:24.935Z,88.43
2022-10-31T17:41:57.487Z,90.18
2022-10-31T17:45:25.437Z,91.11
2022-10-31T17:48:56.608Z,91.61
2022-10-31T17:51:57.080Z,93.08
2022-10-31T17:54:52.259Z,94.53
2022-10-31T17:57:57.948Z,94.14
2022-10-31T18:00:36.057Z,93.72
2022-10-31T18:03:49.238Z,93.38
2022-10-31T18:06:17.575Z,94.07
2022-10-31T18:09:05.877Z,93.99
2022-10-31T18:11:33.598Z,94.34
2022-10-31T18:14:22.624Z,95.00
2022-10-31T18:17:09.603Z,97.39
2022-10-31T18:19:43.761Z,99.53
2022-10-31T18:22:15.526Z,100.00
2022-10-31T18:24:42.715Z,100.00
2022-10-31T18:27:13.977Z,100.00
2022-10-31T18:29:48.833Z,100.00
2022-10-31T18:32:51.697Z,99.86
2022-10-31T18:35:26.860Z,100.00
2022-10-31T18:38:14.534Z,100.00
2022-10-31T18:40:41.827Z,100.00
2022-10-31T18:43:21.827Z,100.00
2022-10-31T18:45:53.707Z,99.43
2022-10-31T18:48:36.835Z,97.57
2022-10-31T18:51:06.512Z,97.22
2022-10-31T18:53:36.343Z,97.58
2022-10-31T18:56:11.200Z,98.09
2022-10-31T18:58:43.303Z,98.45
2022-10-31T19:01:19.628Z,98.59
2022-10-31T19:03:54.400Z,97.18
2022-10-31T19:06:58.408Z,96.54
2022-10-31T19:09:31.142Z,97.25
2022-10-31T19:12:18.751Z,97.63
2022-10-31T19:14:46.967Z,98.95
2022-10-31T19:17:17.158Z,98.83
2022-10-31T19:19:54.608Z,97.77
2022-10-31T19:22:32.024Z,95.85
2022-10-31T19:25:39.143Z,93.94
2022-10-31T19:28:37.317Z,92.79
2022-10-31T19:31:05.463Z,94.23
2022-10-31T19:34:03.141Z,96.06
2022-10-31T19:36:36.980Z,97.37
2022-10-31T19:39:04.421Z,97.87
2022-10-31T19:41:40.437Z,97.04
2022-10-31T19:44:21.720Z,97.51
2022-10-31T19:46:58.427Z,99.12
2022-10-31T19:49:27.292Z,100.00
2022-10-31T19:52:37.654Z,100.00
2022-10-31T19:55:05.526Z,100.00
2022-10-31T19:58:01.463Z,99.16
2022-10-31T20:01:04.152Z,97.56
2022-10-31T20:03:34.058Z,97.53
2022-10-31T20:06:22.039Z,97.95
2022-10-31T20:09:03.937Z,98.08
2022-10-31T20:11:44.373Z,97.69
2022-10-31T20:14:18.428Z,98.34
2022-10-31T20:17:10.616Z,99.43
2022-10-31T20:19:37.863Z,100.00
2022-10-31T20:22:05.183Z,100.00
2022-10-31T20:24:33.606Z,99.66
2022-10-31T20:27:02.613Z,99.29
2022-10-31T20:29:29.685Z,98.96
2022-10-31T20:32:02.813Z,98.83
2022-10-31T20:34:50.699Z,99.03
2022-10-31T20:37:37.775Z,99.44
2022-10-31T20:40:11.559Z,99.26
2022-10-31T20:42:58.337Z,99.74
2022-10-31T20:45:26.598Z,99.42
2022-10-31T20:48:03.647Z,99.86
2022-10-31T20:50:56.302Z,99.73
2022-10-31T20:53:38.079Z,100.00
2022-10-31T20:56:16.859Z,100.00
2022-10-31T20:58:47.452Z,100.00
2022-10-31T21:01:23.569Z,100.00
2022-10-31T21:04:10.778Z,100.00
2022-10-31T21:06:39.525Z,100.00
2022-10-31T21:09:23.926Z,100.00
2022-10-31T21:11:52.910Z,100.00
2022-10-31T21:14:22.307Z,100.00
2022-10-31T21:16:49.440Z,100.00
2022-10-31T21:19:16.964Z,100.00
2022-10-31T21:21:47.582Z,100.00
2022-10-31T21:24:29.094Z,100.00
2022-10-31T21:27:20.658Z,100.00
2022-10-31T21:29:49.649Z,100.00
2022-10-31T21:32:31.899Z,100.00
2022-10-31T21:35:07.309Z,100.00
2022-10-31T21:37:43.376Z,100.00
2022-10-31T21:40:20.441Z,100.00
2022-10-31T21:42:57.653Z,100.00
2022-10-31T21:45:26.758Z,100.00
2022-10-31T21:48:31.859Z,100.00
2022-10-31T21:54:39.355Z,100.00
2022-10-31T22:00:46.892Z,100.00
2022-10-31T22:03:13.966Z,100.00
2022-10-31T22:05:44.140Z,100.00
2022-10-31T22:08:11.285Z,100.00
2022-10-31T22:11:06.493Z,100.00
2022-10-31T22:13:52.158Z,100.00
2022-10-31T22:16:30.231Z,100.00
2022-10-31T22:19:39.698Z,100.00
2022-10-31T22:22:13.310Z,100.00
2022-10-31T22:24:46.340Z,100.00
2022-10-31T22:27:29.917Z,100.00
2022-10-31T22:30:08.889Z,100.00
2022-10-31T22:33:01.052Z,99.42
2022-10-31T22:36:07.387Z,100.00
2022-10-31T22:38:44.782Z,100.00
2022-10-31T22:41:26.213Z,100.00
2022-10-31T22:44:22.743Z,100.00
2022-10-31T22:47:01.919Z,100.00
2022-10-31T22:49:49.255Z,100.00
2022-10-31T22:52:48.519Z,100.00
2022-10-31T22:55:17.602Z,100.00
2022-10-31T22:57:56.404Z,100.00
2022-10-31T23:00:29.397Z,100.00
2022-10-31T23:03:29.124Z,100.00
2022-10-31T23:06:09.873Z,100.00
2022-10-31T23:08:38.286Z,100.00
2022-10-31T23:11:34.938Z,100.00
2022-10-31T23:14:38.029Z,100.00
2022-10-31T23:17:18.117Z,100.00
2022-10-31T23:19:52.983Z,100.00
2022-10-31T23:22:19.973Z,100.00
2022-10-31T23:25:06.977Z,100.00
2022-10-31T23:27:43.017Z,100.00
2022-10-31T23:30:15.946Z,100.00
2022-10-31T23:32:44.887Z,100.00
2022-10-31T23:35:38.489Z,100.00
2022-10-31T23:38:05.539Z,100.00
2022-10-31T23:40:40.902Z,100.00
2022-10-31T23:43:14.014Z,100.00
2022-10-31T23:46:13.187Z,100.00
2022-10-31T23:48:43.585Z,100.00
2022-10-31T23:51:56.711Z,100.00
2022-10-31T23:54:28.200Z,100.00
2022-10-31T23:57:43.113Z,100.00
